Observations for SAINT-BRIEUC ARMOR, France (LFRT)

LFRT 171900Z AUTO 02006KT 9999 BKN030 BKN039 OVC062 17/12 Q1019 
LFRT 171830Z AUTO 03008KT 9999 BKN029 OVC062 18/12 Q1019
LFRT 171800Z AUTO 05008KT 9999 FEW036 BKN064 18/12 Q1019
LFRT 171730Z AUTO 05007KT 9999 SCT042 OVC054 18/12 Q1018
LFRT 171700Z AUTO 07006KT 030V100 9999 FEW041 SCT048 OVC062 19/13 Q1018 
LFRT 171630Z AUTO 06006KT 040V100 9999 FEW032 OVC060 18/13 Q1019
LFRT 171600Z AUTO 05006KT 020V100 9999 BKN028 OVC035 18/14 Q1019
LFRT 171530Z AUTO 08003KT 010V140 9999 FEW027 BKN040 OVC054 19/14 Q1018 
LFRT 171500Z AUTO VRB02KT 9999 BKN028 BKN034 BKN070 20/13 Q1019 
LFRT 171430Z AUTO 05003KT 330V140 9999 FEW042 OVC068 20/14 Q1019
LFRT 171400Z AUTO VRB03KT 9999 SCT017 SCT023 BKN039 18/14 Q1019 
LFRT 171330Z AUTO 02006KT 350V060 9999 FEW029 OVC066 18/14 Q1019
LFRT 171300Z AUTO 03004KT 300V100 9999 BKN027 BKN038 OVC056 19/14 Q1019 
LFRT 171230Z AUTO 06004KT 010V110 9999 BKN026 BKN044 OVC052 19/14 Q1019 
LFRT 171200Z AUTO VRB02KT 9999 FEW029 SCT034 OVC060 20/14 Q1019 
LFRT 171130Z AUTO 32005KT 290V360 9999 BKN032 BKN050 OVC060 19/12 Q1019 
LFRT 171100Z AUTO 33006KT 280V010 9999 SCT033 SCT039 OVC062 20/13 Q1019 
LFRT 171030Z AUTO 29005KT 250V330 9999 FEW033 OVC058 20/12 Q1019
LFRT 171000Z AUTO 27004KT 210V300 9999 FEW030 OVC062 20/13 Q1019
LFRT 170930Z AUTO 26006KT 190V300 9999 SCT026 OVC060 19/13 Q1019
LFRT 170900Z AUTO 27007KT 240V320 CAVOK 19/13 Q1019 
LFRT 170830Z AUTO 27007KT 230V310 9999 FEW021 OVC058 18/13 Q1019
LFRT 170800Z AUTO 27006KT CAVOK 18/13 Q1019 
LFRT 170730Z AUTO 27005KT 230V300 CAVOK 18/13 Q1019 
LFRT 170700Z AUTO 26006KT CAVOK 17/13 Q1018 
LFRT 170630Z AUTO 27006KT CAVOK 16/13 Q1018 
LFRT 170600Z AUTO 26006KT CAVOK 15/13 Q1018 
LFRT 162100Z AUTO 30006KT 9999 FEW024 OVC031 17/13 Q1018
LFRT 162030Z AUTO 31006KT 280V340 9999 BKN023 OVC064 18/13 Q1017
LFRT 162000Z AUTO 32006KT 9999 BKN021 OVC064 18/14 Q1017
LFRT 161930Z AUTO 33005KT 300V360 9999 OVC022 18/14 Q1017   
LFRT 161900Z AUTO 32008KT 9999 OVC023 19/14 Q1017   
LFRT 161830Z AUTO 32010KT 9999 OVC022 19/15 Q1016